Prescott, Arizona
Current Conditions -  °F | °C
As of 8:53 PM on Thursday 18 Dec 2014 (Local Time) from KPRC Reporting Station
Clear Clear  
Wind Chill: -3°   Ceiling: Unl
Heat Index:   Visibility: 10mi
Dew Point: -3°   Wind: 5mph
Humidity: 82%   Direction: 180°S
Pressure: 30.19"   Gusts: NA
Location:  34.54°N, 112.47°W
Report Text: KPRC 190353Z 18004KT 10SM CLR 00/M03 A3019 RMK AO2 SLP218 T00001028
Loading
Personal Weather Stations






























Interactive Weather Map New forecast layout! Learn more

10-Day Weather Forecast

Advertisements
Track Severe Weather on mobile